Terminal Aerodrome Forecast
Issued by NWS Grand Forks, ND

Home | Current Version | Previous Version | Text Only | Print | Product List | Glossary Off
Versions: 1 2 3 4 5 6 7 8 9 10 11 12 13 14 15

000
FTUS43 KFGF 152321
TAFGFK
TAF
KGFK 152321Z 1600/1624 33011KT P6SM BKN120
     FM160200 28007KT P6SM FEW250
     FM160600 25009KT P6SM SKC
     FM161300 22009KT P6SM SKC
     FM161900 19012KT P6SM SCT200=

USA.gov is the U.S. government's official web portal to all federal, state and local government web resources and services.